createdAt,value
2023-04-18T00:00:57.490Z,1001.38
2023-04-18T00:01:57.527Z,1001.39
2023-04-18T00:02:57.555Z,1001.40
2023-04-18T00:03:57.553Z,1001.40
2023-04-18T00:04:57.479Z,1001.40
2023-04-18T00:05:57.442Z,1001.41
2023-04-18T00:06:57.483Z,1001.37
2023-04-18T00:07:57.431Z,1001.36
2023-04-18T00:08:57.440Z,1001.35
2023-04-18T00:09:57.430Z,1001.35
2023-04-18T00:10:57.421Z,1001.38
2023-04-18T00:11:57.409Z,1001.39
2023-04-18T00:12:57.393Z,1001.38
2023-04-18T00:13:57.464Z,1001.39
2023-04-18T00:14:57.381Z,1001.37
2023-04-18T00:15:57.385Z,1001.34
2023-04-18T00:16:57.507Z,1001.36
2023-04-18T00:17:57.498Z,1001.41
2023-04-18T00:18:57.408Z,1001.42
2023-04-18T00:19:57.361Z,1001.38
2023-04-18T00:20:57.349Z,1001.36
2023-04-18T00:21:57.349Z,1001.46
2023-04-18T00:22:57.334Z,1001.44
2023-04-18T00:23:57.313Z,1001.42
2023-04-18T00:24:57.349Z,1001.41
2023-04-18T00:25:57.328Z,1001.42
2023-04-18T00:26:57.303Z,1001.43
2023-04-18T00:27:57.300Z,1001.44
2023-04-18T00:28:57.285Z,1001.42
2023-04-18T00:29:57.286Z,1001.44
2023-04-18T00:30:57.401Z,1001.38
2023-04-18T00:31:57.274Z,1001.37
2023-04-18T00:32:57.305Z,1001.37
2023-04-18T00:33:57.256Z,1001.42
2023-04-18T00:34:57.250Z,1001.45
2023-04-18T00:35:57.260Z,1001.40
2023-04-18T00:36:57.257Z,1001.36
2023-04-18T00:37:57.230Z,1001.48
2023-04-18T00:38:57.230Z,1001.37
2023-04-18T00:39:57.215Z,1001.33
2023-04-18T00:40:57.310Z,1001.39
2023-04-18T00:41:57.233Z,1001.32
2023-04-18T00:42:57.217Z,1001.35
2023-04-18T00:43:57.220Z,1001.31
2023-04-18T00:44:57.209Z,1001.25
2023-04-18T00:45:57.274Z,1001.27
2023-04-18T00:46:57.178Z,1001.28
2023-04-18T00:47:57.222Z,1001.25
2023-04-18T00:48:57.179Z,1001.27
2023-04-18T00:49:57.153Z,1001.24
2023-04-18T00:50:57.135Z,1001.19
2023-04-18T00:51:57.142Z,1001.28
2023-04-18T00:52:57.166Z,1001.26
2023-04-18T00:53:57.152Z,1001.25
2023-04-18T00:54:57.125Z,1001.25
2023-04-18T00:55:57.112Z,1001.23
2023-04-18T00:56:57.113Z,1001.24
2023-04-18T00:57:57.090Z,1001.31
2023-04-18T00:58:57.354Z,1001.26
2023-04-18T00:59:57.097Z,1001.25
2023-04-18T01:00:57.088Z,1001.21
2023-04-18T01:01:57.133Z,1001.22
2023-04-18T01:02:57.126Z,1001.21
2023-04-18T01:03:57.118Z,1001.22
2023-04-18T01:04:58.074Z,1001.20
2023-04-18T01:05:57.063Z,1001.18
2023-04-18T01:06:57.079Z,1001.19
2023-04-18T01:07:57.045Z,1001.21
2023-04-18T01:08:57.049Z,1001.21
2023-04-18T01:09:57.045Z,1001.23
2023-04-18T01:10:57.047Z,1001.17
2023-04-18T01:11:57.036Z,1001.20
2023-04-18T01:12:57.037Z,1001.24
2023-04-18T01:13:57.054Z,1001.22
2023-04-18T01:14:56.995Z,1001.23
2023-04-18T01:15:57.059Z,1001.24
2023-04-18T01:16:56.986Z,1001.26
2023-04-18T01:17:56.977Z,1001.23
2023-04-18T01:18:56.988Z,1001.24
2023-04-18T01:19:57.006Z,1001.24
2023-04-18T01:20:57.018Z,1001.24
2023-04-18T01:21:56.958Z,1001.28
2023-04-18T01:22:56.958Z,1001.29
2023-04-18T01:23:56.943Z,1001.26
2023-04-18T01:24:57.032Z,1001.23
2023-04-18T01:25:56.933Z,1001.25
2023-04-18T01:26:56.925Z,1001.23
2023-04-18T01:27:56.917Z,1001.27
2023-04-18T01:28:56.912Z,1001.22
2023-04-18T01:29:56.925Z,1001.20
2023-04-18T01:30:56.981Z,1001.24
2023-04-18T01:31:56.886Z,1001.25
2023-04-18T01:32:56.947Z,1001.23
2023-04-18T01:33:56.875Z,1001.26
2023-04-18T01:34:56.865Z,1001.27
2023-04-18T01:35:56.876Z,1001.27
2023-04-18T01:36:56.861Z,1001.20
2023-04-18T01:37:56.858Z,1001.24
2023-04-18T01:38:56.843Z,1001.24
2023-04-18T01:39:56.842Z,1001.23
2023-04-18T01:40:56.849Z,1001.25
2023-04-18T01:41:56.824Z,1001.18
2023-04-18T01:42:56.823Z,1001.25
2023-04-18T01:43:56.818Z,1001.25
2023-04-18T01:44:56.802Z,1001.24
2023-04-18T01:45:56.810Z,1001.25
2023-04-18T01:46:56.877Z,1001.24
2023-04-18T01:47:56.879Z,1001.22
2023-04-18T01:48:56.789Z,1001.24
2023-04-18T01:49:56.776Z,1001.22
2023-04-18T01:50:56.782Z,1001.23
2023-04-18T01:51:56.757Z,1001.22
2023-04-18T01:52:56.763Z,1001.23
2023-04-18T01:53:56.769Z,1001.19
2023-04-18T01:54:56.741Z,1001.20
2023-04-18T01:55:56.749Z,1001.17
2023-04-18T01:56:56.760Z,1001.20
2023-04-18T01:57:56.721Z,1001.17
2023-04-18T01:58:56.715Z,1001.18
2023-04-18T01:59:56.710Z,1001.17
2023-04-18T02:00:56.714Z,1001.22
2023-04-18T02:01:56.782Z,1001.22
2023-04-18T02:02:56.885Z,1001.25
2023-04-18T02:03:56.836Z,1001.18
2023-04-18T02:04:56.692Z,1001.17
2023-04-18T02:05:56.665Z,1001.14
2023-04-18T02:06:56.665Z,1001.17
2023-04-18T02:07:56.661Z,1001.12
2023-04-18T02:08:56.663Z,1001.18
2023-04-18T02:09:56.661Z,1001.18
2023-04-18T02:10:56.637Z,1001.10
2023-04-18T02:11:57.633Z,1001.15
2023-04-18T02:12:56.627Z,1001.16
2023-04-18T02:13:56.639Z,1001.16
2023-04-18T02:14:56.637Z,1001.19
2023-04-18T02:15:56.664Z,1001.14
2023-04-18T02:16:56.645Z,1001.16
2023-04-18T02:17:56.667Z,1001.19
2023-04-18T02:18:56.606Z,1001.14
2023-04-18T02:19:56.591Z,1001.18
2023-04-18T02:20:56.605Z,1001.09
2023-04-18T02:21:56.567Z,1001.19
2023-04-18T02:22:56.562Z,1001.20
2023-04-18T02:23:56.574Z,1001.19
2023-04-18T02:24:56.565Z,1001.16
2023-04-18T02:25:56.559Z,1001.16
2023-04-18T02:26:56.539Z,1001.17
2023-04-18T02:27:56.545Z,1001.26
2023-04-18T02:28:56.532Z,1001.21
2023-04-18T02:29:56.541Z,1001.28
2023-04-18T02:30:56.516Z,1001.24
2023-04-18T02:31:56.558Z,1001.22
2023-04-18T02:32:56.561Z,1001.20
2023-04-18T02:33:56.505Z,1001.16
2023-04-18T02:34:56.488Z,1001.18
2023-04-18T02:35:56.490Z,1001.16
2023-04-18T02:36:56.472Z,1001.22
2023-04-18T02:37:56.477Z,1001.18
2023-04-18T02:38:56.460Z,1001.20
2023-04-18T02:39:56.454Z,1001.21
2023-04-18T02:40:56.489Z,1001.16
2023-04-18T02:41:56.438Z,1001.12
2023-04-18T02:42:56.430Z,1001.12
2023-04-18T02:43:56.425Z,1001.09
2023-04-18T02:44:56.420Z,1001.15
2023-04-18T02:45:56.458Z,1001.12
2023-04-18T02:46:56.426Z,1001.06
2023-04-18T02:47:56.824Z,1001.11
2023-04-18T02:48:57.396Z,1001.12
2023-04-18T02:49:56.525Z,1001.12
2023-04-18T02:50:56.384Z,1001.12
2023-04-18T02:51:56.425Z,1001.19
2023-04-18T02:52:56.368Z,1001.15
2023-04-18T02:53:56.611Z,1001.11
2023-04-18T02:54:56.351Z,1001.16
2023-04-18T02:55:56.362Z,1001.21
2023-04-18T02:56:56.350Z,1001.16
2023-04-18T02:57:56.678Z,1001.11
2023-04-18T02:58:56.320Z,1001.15
2023-04-18T02:59:56.337Z,1001.12
2023-04-18T03:00:56.339Z,1001.14
2023-04-18T03:01:56.350Z,1001.18
2023-04-18T03:02:56.363Z,1001.18
2023-04-18T03:03:56.299Z,1001.18
2023-04-18T03:04:56.365Z,1001.18
2023-04-18T03:05:56.301Z,1001.20
2023-04-18T03:06:56.301Z,1001.21
2023-04-18T03:07:56.274Z,1001.17
2023-04-18T03:08:56.276Z,1001.18
2023-04-18T03:09:56.259Z,1001.19
2023-04-18T03:10:56.534Z,1001.16
2023-04-18T03:11:56.248Z,1001.19
2023-04-18T03:12:56.236Z,1001.11
2023-04-18T03:13:56.232Z,1001.09
2023-04-18T03:14:56.225Z,1001.16
2023-04-18T03:15:56.268Z,1001.17
2023-04-18T03:16:56.216Z,1001.19
2023-04-18T03:17:56.226Z,1001.15
2023-04-18T03:18:56.197Z,1001.16
2023-04-18T03:19:56.192Z,1001.16
2023-04-18T03:20:56.198Z,1001.15
2023-04-18T03:21:56.243Z,1001.17
2023-04-18T03:22:56.311Z,1001.14
2023-04-18T03:23:56.178Z,1001.17
2023-04-18T03:24:56.167Z,1001.15
2023-04-18T03:25:56.156Z,1001.15
2023-04-18T03:26:56.153Z,1001.11
2023-04-18T03:27:56.151Z,1001.14
2023-04-18T03:28:56.152Z,1001.17
2023-04-18T03:29:56.122Z,1001.11
2023-04-18T03:30:56.131Z,1001.12
2023-04-18T03:31:56.136Z,1001.16
2023-04-18T03:32:56.230Z,1001.16
2023-04-18T03:33:56.117Z,1001.12
2023-04-18T03:34:56.114Z,1001.21
2023-04-18T03:35:56.114Z,1001.15
2023-04-18T03:36:56.112Z,1001.23
2023-04-18T03:37:56.088Z,1001.23
2023-04-18T03:38:56.095Z,1001.17
2023-04-18T03:39:56.092Z,1001.23
2023-04-18T03:40:56.077Z,1001.19
2023-04-18T03:41:56.092Z,1001.21
2023-04-18T03:42:56.058Z,1001.24
2023-04-18T03:43:56.048Z,1001.22
2023-04-18T03:44:56.044Z,1001.19
2023-04-18T03:45:56.117Z,1001.22
2023-04-18T03:46:56.053Z,1001.20
2023-04-18T03:47:56.085Z,1001.18
2023-04-18T03:48:56.009Z,1001.27
2023-04-18T03:49:56.017Z,1001.18
2023-04-18T03:50:56.013Z,1001.19
2023-04-18T03:51:55.996Z,1001.22
2023-04-18T03:52:56.012Z,1001.21
2023-04-18T03:53:55.982Z,1001.25
2023-04-18T03:54:56.029Z,1001.21
2023-04-18T03:55:55.974Z,1001.28
2023-04-18T03:56:55.963Z,1001.27
2023-04-18T03:57:55.963Z,1001.32
2023-04-18T03:58:55.977Z,1001.25
2023-04-18T03:59:55.948Z,1001.30
2023-04-18T04:00:55.941Z,1001.25
2023-04-18T04:01:55.992Z,1001.29
2023-04-18T04:02:56.088Z,1001.33
2023-04-18T04:03:56.108Z,1001.32
2023-04-18T04:04:55.940Z,1001.32
2023-04-18T04:05:55.906Z,1001.33
2023-04-18T04:06:55.918Z,1001.38
2023-04-18T04:07:55.896Z,1001.33
2023-04-18T04:08:55.888Z,1001.35
2023-04-18T04:09:55.923Z,1001.31
2023-04-18T04:10:55.880Z,1001.26
2023-04-18T04:11:55.875Z,1001.30
2023-04-18T04:12:55.857Z,1001.38
2023-04-18T04:13:55.853Z,1001.26
2023-04-18T04:14:55.880Z,1001.24
2023-04-18T04:15:55.872Z,1001.28
2023-04-18T04:16:55.875Z,1001.32
2023-04-18T04:17:55.891Z,1001.36
2023-04-18T04:18:55.829Z,1001.34
2023-04-18T04:19:55.803Z,1001.36
2023-04-18T04:20:55.816Z,1001.35
2023-04-18T04:21:55.835Z,1001.39
2023-04-18T04:22:55.788Z,1001.42
2023-04-18T04:23:55.788Z,1001.35
2023-04-18T04:24:55.780Z,1001.34
2023-04-18T04:25:55.782Z,1001.36
2023-04-18T04:26:55.781Z,1001.39
2023-04-18T04:27:55.753Z,1001.39
2023-04-18T04:28:55.750Z,1001.40
2023-04-18T04:29:55.748Z,1001.37
2023-04-18T04:30:55.738Z,1001.42
2023-04-18T04:31:55.790Z,1001.48
2023-04-18T04:32:55.774Z,1001.38
2023-04-18T04:33:55.728Z,1001.43
2023-04-18T04:34:55.711Z,1001.44
2023-04-18T04:35:55.706Z,1001.45
2023-04-18T04:36:55.727Z,1001.41
2023-04-18T04:37:55.688Z,1001.43
2023-04-18T04:38:55.684Z,1001.46
2023-04-18T04:39:55.679Z,1001.47
2023-04-18T04:40:55.668Z,1001.47
2023-04-18T04:41:55.853Z,1001.47
2023-04-18T04:42:55.985Z,1001.51
2023-04-18T04:43:55.659Z,1001.52
2023-04-18T04:44:55.656Z,1001.45
2023-04-18T04:45:55.681Z,1001.51
2023-04-18T04:46:55.632Z,1001.55
2023-04-18T04:47:55.655Z,1001.49
2023-04-18T04:48:55.614Z,1001.49
2023-04-18T04:49:55.611Z,1001.47
2023-04-18T04:50:55.599Z,1001.50
2023-04-18T04:51:55.600Z,1001.49
2023-04-18T04:52:55.586Z,1001.51
2023-04-18T04:53:55.594Z,1001.53
2023-04-18T04:54:55.579Z,1001.48
2023-04-18T04:55:55.561Z,1001.55
2023-04-18T04:56:55.564Z,1001.54
2023-04-18T04:57:55.551Z,1001.51
2023-04-18T04:58:55.547Z,1001.50
2023-04-18T04:59:55.545Z,1001.54
2023-04-18T05:00:55.555Z,1001.53
2023-04-18T05:01:55.549Z,1001.57
2023-04-18T05:02:55.709Z,1001.57
2023-04-18T05:03:55.606Z,1001.55
2023-04-18T05:04:55.535Z,1001.59
2023-04-18T05:05:56.502Z,1001.52
2023-04-18T05:06:55.504Z,1001.53
2023-04-18T05:07:55.522Z,1001.56
2023-04-18T05:08:55.483Z,1001.57
2023-04-18T05:09:55.501Z,1001.65
2023-04-18T05:10:55.468Z,1001.65
2023-04-18T05:11:55.482Z,1001.60
2023-04-18T05:12:55.453Z,1001.65
2023-04-18T05:13:55.462Z,1001.68
2023-04-18T05:14:55.462Z,1001.67
2023-04-18T05:15:55.428Z,1001.68
2023-04-18T05:16:55.488Z,1001.67
2023-04-18T05:17:55.453Z,1001.72
2023-04-18T05:18:55.419Z,1001.71
2023-04-18T05:19:55.410Z,1001.69
2023-04-18T05:20:55.408Z,1001.69
2023-04-18T05:21:55.382Z,1001.73
2023-04-18T05:22:55.383Z,1001.72
2023-04-18T05:23:55.394Z,1001.75
2023-04-18T05:24:55.365Z,1001.76
2023-04-18T05:25:55.387Z,1001.70
2023-04-18T05:26:55.350Z,1001.78
2023-04-18T05:27:55.352Z,1001.72
2023-04-18T05:28:55.365Z,1001.81
2023-04-18T05:29:55.391Z,1001.80
2023-04-18T05:30:55.398Z,1001.76
2023-04-18T05:31:55.324Z,1001.78
2023-04-18T05:32:55.346Z,1001.82
2023-04-18T05:33:55.305Z,1001.84
2023-04-18T05:34:56.297Z,1001.80
2023-04-18T05:35:55.287Z,1001.79
2023-04-18T05:36:55.298Z,1001.81
2023-04-18T05:37:55.275Z,1001.85
2023-04-18T05:38:55.265Z,1001.79
2023-04-18T05:39:55.266Z,1001.81
2023-04-18T05:40:55.258Z,1001.75
2023-04-18T05:41:55.256Z,1001.85
2023-04-18T05:42:55.237Z,1001.77
2023-04-18T05:44:04.885Z,1001.73
2023-04-18T05:44:57.221Z,1001.77
2023-04-18T05:45:57.657Z,1001.69
2023-04-18T05:46:55.226Z,1001.74
2023-04-18T05:47:55.223Z,1001.72
2023-04-18T05:48:55.191Z,1001.75
2023-04-18T05:49:56.192Z,1001.69
2023-04-18T05:50:55.187Z,1001.69
2023-04-18T05:51:55.206Z,1001.79
2023-04-18T05:52:55.166Z,1001.76
2023-04-18T05:53:55.169Z,1001.78
2023-04-18T05:54:55.163Z,1001.80
2023-04-18T05:55:55.154Z,1001.80
2023-04-18T05:56:55.167Z,1001.82
2023-04-18T05:57:55.153Z,1001.87
2023-04-18T05:58:55.147Z,1001.87
2023-04-18T05:59:55.125Z,1001.90
2023-04-18T06:00:55.121Z,1001.87
2023-04-18T06:01:55.114Z,1001.89
2023-04-18T06:02:55.343Z,1001.90
2023-04-18T06:03:55.432Z,1002.02
2023-04-18T06:04:55.443Z,1001.93
2023-04-18T06:05:55.200Z,1001.99
2023-04-18T06:06:55.102Z,1002.02
2023-04-18T06:07:55.100Z,1001.95
2023-04-18T06:08:55.109Z,1001.97
2023-04-18T06:09:55.061Z,1001.98
2023-04-18T06:10:55.048Z,1002.00
2023-04-18T06:11:56.041Z,1002.02
2023-04-18T06:12:55.032Z,1002.00
2023-04-18T06:13:55.049Z,1002.04
2023-04-18T06:14:55.016Z,1001.98
2023-04-18T06:15:55.060Z,1002.03
2023-04-18T06:16:55.021Z,1002.00
2023-04-18T06:17:55.199Z,1002.05
2023-04-18T06:18:55.013Z,1002.05
2023-04-18T06:19:55.000Z,1002.04
2023-04-18T06:20:55.000Z,1002.02
2023-04-18T06:21:54.987Z,1002.07
2023-04-18T06:22:54.973Z,1002.07
2023-04-18T06:23:54.968Z,1002.10
2023-04-18T06:24:54.953Z,1002.15
2023-04-18T06:25:54.952Z,1002.08
2023-04-18T06:26:54.965Z,1002.20
2023-04-18T06:27:54.940Z,1002.15
2023-04-18T06:28:54.927Z,1002.11
2023-04-18T06:29:54.971Z,1002.16
2023-04-18T06:30:54.928Z,1002.19
2023-04-18T06:31:54.920Z,1002.14
2023-04-18T06:32:54.995Z,1002.14
2023-04-18T06:33:54.914Z,1002.18
2023-04-18T06:34:54.890Z,1002.14
2023-04-18T06:35:54.904Z,1002.15
2023-04-18T06:36:54.890Z,1002.15
2023-04-18T06:37:54.909Z,1002.20
2023-04-18T06:38:54.869Z,1002.19
2023-04-18T06:39:54.866Z,1002.17
2023-04-18T06:40:54.850Z,1002.17
2023-04-18T06:41:54.840Z,1002.22
2023-04-18T06:42:54.853Z,1002.19
2023-04-18T06:44:55.867Z,1002.21
2023-04-18T06:45:54.872Z,1002.22
2023-04-18T06:46:54.816Z,1002.27
2023-04-18T06:47:54.838Z,1002.22
2023-04-18T06:48:54.799Z,1002.31
2023-04-18T06:49:54.800Z,1002.34
2023-04-18T06:50:54.778Z,1002.30
2023-04-18T06:51:54.784Z,1002.34
2023-04-18T06:52:54.780Z,1002.34
2023-04-18T06:53:54.804Z,1002.37
2023-04-18T06:54:54.786Z,1002.35
2023-04-18T06:55:55.751Z,1002.32
2023-04-18T06:56:54.728Z,1002.38
2023-04-18T06:57:54.756Z,1002.32
2023-04-18T06:58:54.720Z,1002.29
2023-04-18T06:59:54.735Z,1002.33
2023-04-18T07:00:54.747Z,1002.41
2023-04-18T07:01:54.754Z,1002.38
2023-04-18T07:02:55.830Z,1002.40
2023-04-18T07:03:54.790Z,1002.40
2023-04-18T07:04:54.677Z,1002.48
2023-04-18T07:05:54.674Z,1002.43
2023-04-18T07:06:54.673Z,1002.45
2023-04-18T07:07:54.654Z,1002.41
2023-04-18T07:08:54.638Z,1002.46
2023-04-18T07:09:54.632Z,1002.42
2023-04-18T07:10:54.635Z,1002.46
2023-04-18T07:11:54.639Z,1002.49
2023-04-18T07:12:54.631Z,1002.46
2023-04-18T07:13:54.631Z,1002.49
2023-04-18T07:14:54.620Z,1002.44
2023-04-18T07:15:54.606Z,1002.49
2023-04-18T07:16:54.650Z,1002.49
2023-04-18T07:17:54.648Z,1002.53
2023-04-18T07:18:54.570Z,1002.48
2023-04-18T07:19:54.572Z,1002.51
2023-04-18T07:20:54.579Z,1002.53
2023-04-18T07:21:54.555Z,1002.48
2023-04-18T07:22:54.572Z,1002.50
2023-04-18T07:23:54.548Z,1002.50
2023-04-18T07:24:54.539Z,1002.52
2023-04-18T07:25:54.541Z,1002.55
2023-04-18T07:26:55.197Z,1002.51
2023-04-18T07:27:55.516Z,1002.50
2023-04-18T07:28:54.516Z,1002.56
2023-04-18T07:29:54.526Z,1002.50
2023-04-18T07:30:54.539Z,1002.43
2023-04-18T07:31:54.487Z,1002.48
2023-04-18T07:32:54.511Z,1002.50
2023-04-18T07:33:54.475Z,1002.41
2023-04-18T07:34:54.472Z,1002.49
2023-04-18T07:35:54.493Z,1002.51
2023-04-18T07:36:54.487Z,1002.43
2023-04-18T07:37:54.517Z,1002.50
2023-04-18T07:38:54.443Z,1002.46
2023-04-18T07:39:54.443Z,1002.47
2023-04-18T07:40:54.442Z,1002.53
2023-04-18T07:41:54.450Z,1002.48
2023-04-18T07:42:54.428Z,1002.52
2023-04-18T07:43:54.425Z,1002.40
2023-04-18T07:44:54.411Z,1002.57
2023-04-18T07:45:54.420Z,1002.53
2023-04-18T07:46:54.410Z,1002.49
2023-04-18T07:47:54.415Z,1002.50
2023-04-18T07:48:54.388Z,1002.51
2023-04-18T07:49:54.389Z,1002.41
2023-04-18T07:50:54.424Z,1002.44
2023-04-18T07:51:54.362Z,1002.41
2023-04-18T07:52:54.376Z,1002.47
2023-04-18T07:53:54.346Z,1002.46
2023-04-18T07:54:54.348Z,1002.48
2023-04-18T07:55:54.370Z,1002.53
2023-04-18T07:56:54.334Z,1002.56
2023-04-18T07:57:54.336Z,1002.54
2023-04-18T07:58:54.320Z,1002.62
2023-04-18T07:59:54.334Z,1002.58
2023-04-18T08:00:54.308Z,1002.61
2023-04-18T08:01:54.302Z,1002.58
2023-04-18T08:02:54.361Z,1002.60
2023-04-18T08:03:54.407Z,1002.61
2023-04-18T08:04:54.456Z,1002.61
2023-04-18T08:05:54.277Z,1002.57
2023-04-18T08:06:57.201Z,1002.60
2023-04-18T08:07:54.259Z,1002.59
2023-04-18T08:08:54.251Z,1002.62
2023-04-18T08:09:54.423Z,1002.65
2023-04-18T08:10:54.251Z,1002.63
2023-04-18T08:11:54.256Z,1002.60
2023-04-18T08:12:54.237Z,1002.63
2023-04-18T08:13:54.222Z,1002.62
2023-04-18T08:14:54.228Z,1002.66
2023-04-18T08:15:54.240Z,1002.64
2023-04-18T08:16:54.233Z,1002.64
2023-04-18T08:17:54.237Z,1002.63
2023-04-18T08:18:54.195Z,1002.62
2023-04-18T08:19:54.193Z,1002.70
2023-04-18T08:20:54.208Z,1002.69
2023-04-18T08:21:54.180Z,1002.66
2023-04-18T08:23:05.583Z,1002.66
2023-04-18T08:23:56.170Z,1002.67
2023-04-18T08:25:04.469Z,1002.70
2023-04-18T08:25:56.172Z,1002.71
2023-04-18T08:26:54.132Z,1002.69
2023-04-18T08:27:54.158Z,1002.70
2023-04-18T08:28:54.139Z,1002.66
2023-04-18T08:29:54.121Z,1002.76
2023-04-18T08:30:54.115Z,1002.78
2023-04-18T08:31:54.162Z,1002.75
2023-04-18T08:32:54.208Z,1002.72
2023-04-18T08:33:54.099Z,1002.71
2023-04-18T08:34:54.106Z,1002.76
2023-04-18T08:35:54.082Z,1002.70
2023-04-18T08:36:54.340Z,1002.79
2023-04-18T08:37:54.075Z,1002.76
2023-04-18T08:38:54.058Z,1002.72
2023-04-18T08:39:54.052Z,1002.72
2023-04-18T08:40:54.054Z,1002.72
2023-04-18T08:41:54.052Z,1002.72
2023-04-18T08:42:54.036Z,1002.77
2023-04-18T08:43:55.219Z,1002.78
2023-04-18T08:44:54.045Z,1002.83
2023-04-18T08:45:54.049Z,1002.78
2023-04-18T08:46:54.083Z,1002.78
2023-04-18T08:47:54.098Z,1002.86
2023-04-18T08:48:53.993Z,1002.82
2023-04-18T08:49:53.978Z,1002.74
2023-04-18T08:50:53.986Z,1002.78
2023-04-18T08:51:53.963Z,1002.73
2023-04-18T08:52:53.965Z,1002.83
2023-04-18T08:53:53.953Z,1002.77
2023-04-18T08:54:53.941Z,1002.82
2023-04-18T08:55:53.969Z,1002.75
2023-04-18T08:56:53.952Z,1002.80
2023-04-18T08:57:53.960Z,1002.79
2023-04-18T08:58:53.921Z,1002.71
2023-04-18T08:59:53.934Z,1002.74
2023-04-18T09:00:53.926Z,1002.78
2023-04-18T09:01:54.276Z,1002.68
2023-04-18T09:02:53.979Z,1002.73
2023-04-18T09:03:53.919Z,1002.74
2023-04-18T09:04:53.885Z,1002.75
2023-04-18T09:05:53.876Z,1002.75
2023-04-18T09:06:53.914Z,1002.71
2023-04-18T09:07:53.878Z,1002.74
2023-04-18T09:08:53.870Z,1002.78
2023-04-18T09:09:53.851Z,1002.72
2023-04-18T09:10:54.854Z,1002.67
2023-04-18T09:11:53.829Z,1002.71
2023-04-18T09:12:53.853Z,1002.75
2023-04-18T09:13:53.844Z,1002.72
2023-04-18T09:14:53.817Z,1002.67
2023-04-18T09:15:53.811Z,1002.64
2023-04-18T09:16:53.856Z,1002.65
2023-04-18T09:17:53.874Z,1002.65
2023-04-18T09:18:53.794Z,1002.72
2023-04-18T09:19:53.786Z,1002.71
2023-04-18T09:20:53.782Z,1002.66
2023-04-18T09:21:53.781Z,1002.65
2023-04-18T09:22:53.775Z,1002.57
2023-04-18T09:23:53.776Z,1002.52
2023-04-18T09:24:53.832Z,1002.68
2023-04-18T09:25:53.769Z,1002.65
2023-04-18T09:26:53.797Z,1002.65
2023-04-18T09:27:53.763Z,1002.63
2023-04-18T09:28:54.057Z,1002.64
2023-04-18T09:29:57.295Z,1002.63
2023-04-18T09:30:53.721Z,1002.59
2023-04-18T09:31:53.730Z,1002.60
2023-04-18T09:32:53.709Z,1002.56
2023-04-18T09:33:53.732Z,1002.59
2023-04-18T09:34:53.699Z,1002.60
2023-04-18T09:35:53.704Z,1002.57
2023-04-18T09:36:53.697Z,1002.62
2023-04-18T09:37:53.696Z,1002.63
2023-04-18T09:38:56.221Z,1002.61
2023-04-18T09:39:54.676Z,1002.60
2023-04-18T09:40:53.653Z,1002.62
2023-04-18T09:41:53.654Z,1002.61
2023-04-18T09:42:53.640Z,1002.60
2023-04-18T09:43:53.638Z,1002.50
2023-04-18T09:44:55.097Z,1002.54
2023-04-18T09:45:53.680Z,1002.52
2023-04-18T09:46:53.614Z,1002.58
2023-04-18T09:47:53.715Z,1002.56
2023-04-18T09:48:53.602Z,1002.53
2023-04-18T09:49:53.594Z,1002.49
2023-04-18T09:50:53.588Z,1002.50
2023-04-18T09:51:53.575Z,1002.50
2023-04-18T09:52:53.561Z,1002.49
2023-04-18T09:53:53.583Z,1002.44
2023-04-18T09:54:53.567Z,1002.45
2023-04-18T09:55:54.872Z,1002.46
2023-04-18T09:56:53.550Z,1002.43
2023-04-18T09:57:53.532Z,1002.45
2023-04-18T09:58:53.530Z,1002.43
2023-04-18T09:59:53.542Z,1002.44
2023-04-18T10:00:53.510Z,1002.49
2023-04-18T10:01:53.793Z,1002.44
2023-04-18T10:02:53.609Z,1002.41
2023-04-18T10:03:53.562Z,1002.36
2023-04-18T10:04:53.616Z,1002.38
2023-04-18T10:05:53.955Z,1002.43
2023-04-18T10:06:53.470Z,1002.50
2023-04-18T10:07:53.464Z,1002.38
2023-04-18T10:08:53.458Z,1002.37
2023-04-18T10:09:53.459Z,1002.36
2023-04-18T10:10:53.441Z,1002.46
2023-04-18T10:11:53.426Z,1002.46
2023-04-18T10:12:53.424Z,1002.43
2023-04-18T10:13:53.433Z,1002.37
2023-04-18T10:14:53.420Z,1002.43
2023-04-18T10:15:53.472Z,1002.45
2023-04-18T10:16:53.404Z,1002.42
2023-04-18T10:18:03.674Z,1002.41
2023-04-18T10:18:55.389Z,1002.42
2023-04-18T10:19:53.365Z,1002.42
2023-04-18T10:20:53.400Z,1002.39
2023-04-18T10:21:54.236Z,1002.43
2023-04-18T10:22:53.340Z,1002.41
2023-04-18T10:23:53.341Z,1002.42
2023-04-18T10:24:53.704Z,1002.41
2023-04-18T10:25:53.356Z,1002.40
2023-04-18T10:26:53.321Z,1002.45
2023-04-18T10:27:53.317Z,1002.44
2023-04-18T10:28:53.759Z,1002.41
2023-04-18T10:29:53.313Z,1002.40
2023-04-18T10:30:53.316Z,1002.37
2023-04-18T10:31:54.341Z,1002.39
2023-04-18T10:32:53.346Z,1002.36
2023-04-18T10:34:03.784Z,1002.42
2023-04-18T10:34:55.258Z,1002.43
2023-04-18T10:35:53.255Z,1002.39
2023-04-18T10:36:53.239Z,1002.34
2023-04-18T10:37:53.247Z,1002.35
2023-04-18T10:38:53.249Z,1002.39
2023-04-18T10:39:53.237Z,1002.35
2023-04-18T10:40:53.227Z,1002.23
2023-04-18T10:41:53.212Z,1002.37
2023-04-18T10:42:53.196Z,1002.25
2023-04-18T10:43:53.224Z,1002.25
2023-04-18T10:44:53.211Z,1002.19
2023-04-18T10:45:53.173Z,1002.17
2023-04-18T10:46:53.293Z,1002.15
2023-04-18T10:47:53.207Z,1002.27
2023-04-18T10:48:53.168Z,1002.24
2023-04-18T10:49:53.250Z,1002.13
2023-04-18T10:50:53.157Z,1002.22
2023-04-18T10:51:53.156Z,1002.13
2023-04-18T10:52:53.127Z,1002.28
2023-04-18T10:53:53.169Z,1002.14
2023-04-18T10:54:53.154Z,1002.08
2023-04-18T10:55:53.116Z,1002.07
2023-04-18T10:56:53.106Z,1002.17
2023-04-18T10:57:53.095Z,1002.12
2023-04-18T10:58:53.114Z,1002.10
2023-04-18T10:59:53.110Z,1002.09
2023-04-18T11:00:53.125Z,1002.11
2023-04-18T11:01:53.152Z,1002.08
2023-04-18T11:02:53.298Z,1002.14
2023-04-18T11:03:53.130Z,1002.13
2023-04-18T11:04:53.082Z,1002.10
2023-04-18T11:05:53.089Z,1002.08
2023-04-18T11:06:53.039Z,1002.09
2023-04-18T11:07:53.053Z,1002.06
2023-04-18T11:08:53.031Z,1002.03
2023-04-18T11:09:53.030Z,1002.08
2023-04-18T11:10:53.033Z,1002.06
2023-04-18T11:11:53.275Z,1002.03
2023-04-18T11:12:53.021Z,1002.04
2023-04-18T11:13:52.991Z,1002.10
2023-04-18T11:14:52.983Z,1002.09
2023-04-18T11:15:52.977Z,1002.09
2023-04-18T11:16:53.067Z,1002.08
2023-04-18T11:17:53.042Z,1002.03
2023-04-18T11:18:52.951Z,1002.08
2023-04-18T11:19:53.960Z,1002.00
2023-04-18T11:20:52.943Z,1002.02
2023-04-18T11:21:52.969Z,1002.04
2023-04-18T11:22:52.943Z,1002.15
2023-04-18T11:23:52.929Z,1002.01
2023-04-18T11:24:52.922Z,1002.11
2023-04-18T11:25:52.920Z,1002.03
2023-04-18T11:26:52.907Z,1001.96
2023-04-18T11:27:52.936Z,1002.06
2023-04-18T11:28:52.934Z,1002.05
2023-04-18T11:29:52.908Z,1002.04
2023-04-18T11:30:52.880Z,1002.08
2023-04-18T11:31:53.674Z,1002.06
2023-04-18T11:32:52.954Z,1001.99
2023-04-18T11:33:52.887Z,1002.10
2023-04-18T11:34:52.865Z,1002.05
2023-04-18T11:35:52.852Z,1002.06
2023-04-18T11:36:52.840Z,1002.07
2023-04-18T11:37:53.051Z,1002.07
2023-04-18T11:38:52.826Z,1002.05
2023-04-18T11:39:52.820Z,1002.03
2023-04-18T11:40:52.811Z,1001.99
2023-04-18T11:41:52.809Z,1002.02
2023-04-18T11:42:52.834Z,1002.01
2023-04-18T11:43:52.789Z,1001.98
2023-04-18T11:44:52.801Z,1001.96
2023-04-18T11:45:52.816Z,1001.94
2023-04-18T11:46:52.801Z,1001.97
2023-04-18T11:47:52.883Z,1002.04
2023-04-18T11:48:52.773Z,1001.97
2023-04-18T11:49:53.796Z,1001.98
2023-04-18T11:50:52.768Z,1001.99
2023-04-18T11:51:52.747Z,1002.01
2023-04-18T11:52:52.743Z,1002.02
2023-04-18T11:53:52.758Z,1001.98
2023-04-18T11:54:52.727Z,1002.04
2023-04-18T11:55:52.869Z,1002.01
2023-04-18T11:56:52.709Z,1002.01
2023-04-18T11:57:52.716Z,1002.02
2023-04-18T11:58:52.709Z,1002.04
2023-04-18T11:59:52.685Z,1001.93
2023-04-18T12:00:52.686Z,1001.99
2023-04-18T12:01:53.223Z,1002.03
2023-04-18T12:02:53.788Z,1001.98
2023-04-18T12:03:52.950Z,1002.00
2023-04-18T12:04:52.987Z,1002.09
2023-04-18T12:05:52.749Z,1002.06
2023-04-18T12:06:52.700Z,1002.04